Time;durP1;ratioP1;P1;durP2;ratioP2;P2;SDS_P1;SDS_P2;PMS_P1;PMS_P2;Temp;Humidity;BMP_temperature;BMP_pressure;BME280_temperature;BME280_humidity;BME280_pressure;Samples;Min_cycle;Max_cycle;Signal;HPM_P1;HPM_P2
2022/07/23 00:00:31;;;;;;;12.63;6.57;;;20.20;99.90;;;;;;5023333;28;20132;-75
2022/07/23 00:02:58;;;;;;;9.07;5.72;;;20.10;99.90;;;;;;5039635;28;20053;-76
2022/07/23 00:05:27;;;;;;;15.50;6.25;;;20.10;99.90;;;;;;5039651;28;20045;-75
2022/07/23 00:07:54;;;;;;;11.15;5.72;;;20.10;99.90;;;;;;5040772;28;20124;-77
2022/07/23 00:10:22;;;;;;;11.20;6.15;;;20.10;99.90;;;;;;5040943;28;20042;-77
2022/07/23 00:12:50;;;;;;;11.93;5.85;;;20.10;99.90;;;;;;5038366;28;20041;-74
2022/07/23 00:15:17;;;;;;;12.73;6.18;;;20.10;99.90;;;;;;5038703;28;20492;-76
2022/07/23 00:17:44;;;;;;;11.57;6.18;;;20.00;99.90;;;;;;5037787;28;20092;-74
2022/07/23 00:20:12;;;;;;;14.05;6.15;;;20.00;99.90;;;;;;5039670;28;20072;-77
2022/07/23 00:22:48;;;;;;;12.48;6.72;;;20.00;99.90;;;;;;5040585;28;20096;-76
2022/07/23 00:25:15;;;;;;;12.63;6.43;;;19.90;99.90;;;;;;5037226;28;20072;-77
2022/07/23 00:27:43;;;;;;;8.80;5.93;;;19.90;99.90;;;;;;5041478;28;20056;-74
2022/07/23 00:30:12;;;;;;;10.32;5.55;;;19.90;99.90;;;;;;5032051;28;20041;-75
2022/07/23 00:32:47;;;;;;;9.52;5.22;;;19.80;99.90;;;;;;5028663;28;20050;-76
2022/07/23 00:35:14;;;;;;;9.20;5.97;;;19.80;99.90;;;;;;5026782;28;20041;-76
2022/07/23 00:37:42;;;;;;;11.70;5.70;;;19.80;99.90;;;;;;5023831;28;20049;-75
2022/07/23 00:40:12;;;;;;;12.40;5.55;;;19.70;99.90;;;;;;5034925;28;20045;-77
2022/07/23 00:42:40;;;;;;;14.40;6.15;;;19.70;99.90;;;;;;5017212;28;20499;-75
2022/07/23 00:45:09;;;;;;;8.98;5.72;;;19.60;99.90;;;;;;5034640;28;20098;-76
2022/07/23 00:47:36;;;;;;;13.77;5.65;;;19.60;99.90;;;;;;5017041;28;20132;-76
2022/07/23 00:50:08;;;;;;;9.95;5.80;;;19.60;99.90;;;;;;5016726;28;20068;-75
2022/07/23 00:52:37;;;;;;;11.90;6.38;;;19.60;99.90;;;;;;5033993;28;20416;-74
2022/07/23 00:55:05;;;;;;;11.75;6.05;;;19.40;99.90;;;;;;5056416;28;20045;-76
2022/07/23 00:57:34;;;;;;;10.02;5.82;;;19.40;99.90;;;;;;5036172;28;20092;-75
2022/07/23 01:00:02;;;;;;;9.52;5.70;;;19.40;99.90;;;;;;5034655;28;20105;-74
2022/07/23 01:02:29;;;;;;;10.88;5.95;;;19.40;99.90;;;;;;5033353;28;20048;-76
2022/07/23 01:04:57;;;;;;;11.60;6.03;;;19.40;99.90;;;;;;5037604;28;20053;-76
2022/07/23 01:07:25;;;;;;;11.25;5.28;;;19.40;99.90;;;;;;5036197;28;20504;-76
2022/07/23 01:09:53;;;;;;;10.50;5.72;;;19.30;99.90;;;;;;5035824;28;20049;-77
2022/07/23 01:12:20;;;;;;;33.67;21.88;;;19.30;99.90;;;;;;5039282;28;20052;-75
2022/07/23 01:14:56;;;;;;;14.05;6.07;;;19.20;99.90;;;;;;5040216;28;20053;-75
2022/07/23 01:17:23;;;;;;;11.27;6.07;;;19.20;99.90;;;;;;5034131;28;20064;-75
2022/07/23 01:19:51;;;;;;;55.45;37.00;;;19.20;99.90;;;;;;5033297;28;20049;-76
2022/07/23 01:22:22;;;;;;;16.77;11.10;;;19.20;99.90;;;;;;5032788;28;20072;-76
2022/07/23 01:24:51;;;;;;;14.05;7.65;;;19.20;99.90;;;;;;5034291;28;20416;-75
2022/07/23 01:27:23;;;;;;;10.13;5.95;;;19.20;99.90;;;;;;5033601;28;20049;-76
2022/07/23 01:29:55;;;;;;;10.70;6.25;;;19.20;99.90;;;;;;5032831;28;20053;-75
2022/07/23 01:32:23;;;;;;;10.98;5.95;;;19.20;99.90;;;;;;5032389;28;20045;-74
2022/07/23 01:34:51;;;;;;;11.30;5.70;;;19.10;99.90;;;;;;5032649;28;20385;-77
2022/07/23 01:37:18;;;;;;;11.10;5.82;;;19.10;99.90;;;;;;5032620;28;20132;-76
2022/07/23 01:39:46;;;;;;;10.77;5.85;;;19.00;99.90;;;;;;5037671;28;20140;-75
2022/07/23 01:42:15;;;;;;;11.98;5.63;;;19.00;99.90;;;;;;5042392;28;20520;-77
2022/07/23 01:44:43;;;;;;;9.23;5.45;;;18.90;99.90;;;;;;5042693;28;20049;-76
2022/07/23 01:47:16;;;;;;;10.80;5.47;;;18.90;99.90;;;;;;5034264;28;20049;-76
2022/07/23 01:49:44;;;;;;;11.65;6.05;;;18.90;99.90;;;;;;5043876;28;20045;-76
2022/07/23 01:52:30;;;;;;;8.93;5.65;;;18.90;99.90;;;;;;5045028;28;20063;-76
2022/07/23 01:54:57;;;;;;;11.00;6.10;;;18.90;99.90;;;;;;5028122;28;20049;-76
2022/07/23 01:57:26;;;;;;;13.68;6.05;;;18.80;99.90;;;;;;5035489;28;20088;-77
2022/07/23 01:59:53;;;;;;;12.02;6.18;;;18.80;99.90;;;;;;5016215;28;20041;-75
2022/07/23 02:02:22;;;;;;;14.52;6.00;;;18.70;99.90;;;;;;5015654;28;20512;-75
2022/07/23 02:04:49;;;;;;;10.93;6.20;;;18.70;99.90;;;;;;5033643;28;20045;-76
2022/07/23 02:07:18;;;;;;;16.42;6.28;;;18.70;99.90;;;;;;5016204;28;20045;-75
2022/07/23 02:09:46;;;;;;;8.80;5.63;;;18.60;99.90;;;;;;5015745;28;20049;-75
2022/07/23 02:12:13;;;;;;;12.48;5.55;;;18.50;99.90;;;;;;5015605;28;20111;-76
2022/07/23 02:14:42;;;;;;;10.45;5.75;;;18.50;99.90;;;;;;5019513;28;20057;-75
2022/07/23 02:17:10;;;;;;;7.70;5.72;;;18.60;99.90;;;;;;5019820;28;20095;-75
2022/07/23 02:19:37;;;;;;;11.48;5.90;;;18.60;99.90;;;;;;5019879;28;20049;-76
2022/07/23 02:22:04;;;;;;;10.23;5.43;;;18.60;99.90;;;;;;5026645;28;20046;-74
2022/07/23 02:24:32;;;;;;;10.13;5.53;;;18.70;99.90;;;;;;5044782;28;20053;-75
2022/07/23 02:26:59;;;;;;;11.57;5.35;;;18.60;99.90;;;;;;5062093;28;20026;-75
2022/07/23 02:29:27;;;;;;;13.80;6.38;;;18.60;99.90;;;;;;5033561;28;20042;-77
2022/07/23 02:31:57;;;;;;;11.80;6.25;;;18.60;99.90;;;;;;5019929;28;20057;-77
2022/07/23 02:34:24;;;;;;;9.73;6.03;;;18.50;99.90;;;;;;5020272;28;20048;-76
2022/07/23 02:36:51;;;;;;;13.73;5.90;;;18.50;99.90;;;;;;5019786;28;20057;-77
2022/07/23 02:39:19;;;;;;;11.80;6.15;;;18.40;99.90;;;;;;5019437;28;20427;-77
2022/07/23 02:41:46;;;;;;;13.25;5.72;;;18.40;99.90;;;;;;5019296;28;20037;-76
2022/07/23 02:44:14;;;;;;;12.88;5.80;;;18.40;99.90;;;;;;5019357;28;20456;-77
2022/07/23 02:46:44;;;;;;;10.98;6.20;;;18.40;99.90;;;;;;5019696;28;20527;-75
2022/07/23 02:49:12;;;;;;;14.20;6.13;;;18.40;99.90;;;;;;5031193;28;20114;-76
2022/07/23 02:51:40;;;;;;;12.40;6.43;;;18.30;99.90;;;;;;5035494;28;20050;-76
2022/07/23 02:54:10;;;;;;;11.40;6.53;;;18.30;99.90;;;;;;5035333;28;20049;-75
2022/07/23 02:56:37;;;;;;;12.20;7.82;;;18.20;99.90;;;;;;5035747;28;20053;-76
2022/07/23 02:59:05;;;;;;;11.55;7.78;;;18.20;99.90;;;;;;5035590;28;20049;-76
2022/07/23 03:01:32;;;;;;;9.50;7.10;;;18.20;99.90;;;;;;5035528;28;20045;-76
2022/07/23 03:04:00;;;;;;;14.70;7.20;;;18.20;99.90;;;;;;5035374;28;20524;-76
2022/07/23 03:06:29;;;;;;;9.48;7.15;;;18.20;99.90;;;;;;5035470;28;20444;-76
2022/07/23 03:08:56;;;;;;;11.13;6.80;;;18.20;99.90;;;;;;5035494;28;20100;-76
2022/07/23 03:11:23;;;;;;;13.52;6.60;;;18.30;99.90;;;;;;5035169;28;20416;-76
2022/07/23 03:13:51;;;;;;;11.45;5.90;;;18.20;99.90;;;;;;5035009;28;20140;-75
2022/07/23 03:16:18;;;;;;;11.30;6.00;;;18.20;99.90;;;;;;5036483;28;20088;-76
2022/07/23 03:18:45;;;;;;;14.02;6.13;;;18.20;99.90;;;;;;5034994;28;20053;-75
2022/07/23 03:21:13;;;;;;;9.75;5.97;;;18.10;99.90;;;;;;5034562;28;20049;-76
2022/07/23 03:23:41;;;;;;;11.73;6.55;;;18.10;99.90;;;;;;5035571;28;20484;-77
2022/07/23 03:26:09;;;;;;;12.15;6.35;;;18.20;99.90;;;;;;5035421;28;20054;-75
2022/07/23 03:28:36;;;;;;;8.10;5.57;;;18.20;99.90;;;;;;5035260;28;20055;-74
2022/07/23 03:31:06;;;;;;;10.98;5.88;;;18.20;99.90;;;;;;5036277;28;20041;-75
2022/07/23 03:33:33;;;;;;;11.38;5.97;;;18.20;99.90;;;;;;5034853;28;20065;-75
2022/07/23 03:36:01;;;;;;;9.55;5.93;;;18.20;99.90;;;;;;5034786;28;20053;-75
2022/07/23 03:38:32;;;;;;;9.90;5.82;;;18.20;99.90;;;;;;5035033;28;20105;-75
2022/07/23 03:41:00;;;;;;;12.75;6.18;;;18.30;99.90;;;;;;5034605;28;20516;-75
2022/07/23 03:43:28;;;;;;;8.93;5.85;;;18.30;99.90;;;;;;5034507;28;20099;-75
2022/07/23 03:45:55;;;;;;;11.13;6.78;;;18.40;99.90;;;;;;5034626;28;20072;-74
2022/07/23 03:48:23;;;;;;;16.98;6.85;;;18.30;99.90;;;;;;5034377;28;20418;-77
2022/07/23 03:50:50;;;;;;;12.65;6.50;;;18.40;99.90;;;;;;5036261;28;20038;-77
2022/07/23 03:53:18;;;;;;;14.48;6.72;;;18.40;99.90;;;;;;5019076;28;20042;-76
2022/07/23 03:55:47;;;;;;;12.05;6.95;;;18.40;99.90;;;;;;5018840;28;20061;-76
2022/07/23 03:58:16;;;;;;;13.82;7.05;;;18.50;99.90;;;;;;5018693;28;20045;-76
2022/07/23 04:00:44;;;;;;;12.70;7.28;;;18.70;99.90;;;;;;5018808;28;20060;-76
2022/07/23 04:03:12;;;;;;;14.10;6.70;;;19.20;99.90;;;;;;5018455;28;20079;-77
2022/07/23 04:05:39;;;;;;;13.55;6.53;;;19.70;99.90;;;;;;5018662;28;20049;-77
2022/07/23 04:08:08;;;;;;;10.63;6.20;;;20.20;99.90;;;;;;5018792;28;20054;-76
2022/07/23 04:10:39;;;;;;;14.25;6.72;;;20.60;99.90;;;;;;5018547;28;20046;-77
2022/07/23 04:13:08;;;;;;;14.90;6.70;;;21.00;99.90;;;;;;5017831;28;20049;-76
2022/07/23 04:15:37;;;;;;;12.85;6.72;;;21.20;99.90;;;;;;5020642;28;20053;-75
2022/07/23 04:18:06;;;;;;;11.57;7.32;;;21.70;99.90;;;;;;5027766;28;20049;-76
2022/07/23 04:20:44;;;;;;;12.60;8.73;;;21.80;99.90;;;;;;5019105;28;20108;-77
2022/07/23 04:23:12;;;;;;;14.20;11.55;;;22.00;99.90;;;;;;5027555;28;20086;-76
2022/07/23 04:25:40;;;;;;;24.95;18.00;;;22.50;99.90;;;;;;5024760;28;20076;-77
2022/07/23 04:28:08;;;;;;;24.02;18.90;;;23.00;99.90;;;;;;5019416;28;20080;-77
2022/07/23 04:30:38;;;;;;;20.02;15.45;;;23.30;99.90;;;;;;5017806;28;20500;-76
2022/07/23 04:33:07;;;;;;;16.63;10.30;;;23.50;99.90;;;;;;5017601;28;20072;-77
2022/07/23 04:35:37;;;;;;;14.23;7.53;;;23.50;99.90;;;;;;5018645;28;20111;-76
2022/07/23 04:38:13;;;;;;;10.35;6.60;;;23.70;99.90;;;;;;5017926;28;20068;-76
2022/07/23 04:40:41;;;;;;;11.93;6.70;;;24.10;99.90;;;;;;5018324;28;20054;-77
2022/07/23 04:43:09;;;;;;;12.70;6.20;;;24.50;99.90;;;;;;5021641;28;20057;-76
2022/07/23 04:45:45;;;;;;;10.68;7.00;;;24.90;99.90;;;;;;5032806;28;20080;-78
2022/07/23 04:48:13;;;;;;;12.23;6.18;;;25.00;99.90;;;;;;5019411;28;20042;-77
2022/07/23 04:50:42;;;;;;;11.52;5.55;;;25.40;99.90;;;;;;5018308;28;20087;-78
2022/07/23 04:53:17;;;;;;;11.67;6.10;;;25.30;99.90;;;;;;5018054;28;20128;-76
2022/07/23 04:55:45;;;;;;;14.68;6.50;;;25.70;99.90;;;;;;5018030;28;20058;-79
2022/07/23 04:58:12;;;;;;;17.48;6.55;;;25.70;99.90;;;;;;5017846;28;20405;-76
2022/07/23 05:00:39;;;;;;;11.80;6.60;;;25.90;99.90;;;;;;5035972;28;20045;-77
2022/07/23 05:03:08;;;;;;;105.32;12.63;;;26.20;99.90;;;;;;5022545;28;20042;-79
2022/07/23 05:05:39;;;;;;;21.52;7.20;;;25.60;99.90;;;;;;5035679;28;20063;-76
2022/07/23 05:08:13;;;;;;;20.45;7.13;;;25.10;99.90;;;;;;5035841;28;20049;-77
2022/07/23 05:10:42;;;;;;;11.15;5.85;;;24.70;99.90;;;;;;5036071;28;20076;-77
2022/07/23 05:13:09;;;;;;;14.90;6.60;;;24.50;99.90;;;;;;5028958;28;20053;-78
2022/07/23 05:15:36;;;;;;;11.82;6.07;;;25.00;99.90;;;;;;5035560;28;20060;-76
2022/07/23 05:18:04;;;;;;;11.90;5.82;;;26.20;99.90;;;;;;5017784;28;20048;-78
2022/07/23 05:20:34;;;;;;;12.77;6.15;;;27.20;99.90;;;;;;5017843;28;20041;-77
2022/07/23 05:23:02;;;;;;;12.27;5.78;;;28.00;99.90;;;;;;5017681;28;20041;-77
2022/07/23 05:25:29;;;;;;;15.45;6.28;;;28.60;99.90;;;;;;5017757;28;20531;-77
2022/07/23 05:27:57;;;;;;;17.33;6.10;;;28.90;99.90;;;;;;5017854;28;20504;-77
2022/07/23 05:30:25;;;;;;;12.88;5.88;;;29.20;99.90;;;;;;5018762;28;20050;-78
2022/07/23 05:32:57;;;;;;;9.45;5.75;;;29.60;99.90;;;;;;5018162;28;20045;-77
2022/07/23 05:35:25;;;;;;;16.60;9.02;;;29.90;99.90;;;;;;5017866;28;20049;-77
2022/07/23 05:38:20;;;;;;;15.93;7.50;;;30.10;99.90;;;;;;5019622;28;20127;-78
2022/07/23 05:40:47;;;;;;;16.45;6.82;;;30.30;97.40;;;;;;5017967;28;20123;-77
2022/07/23 05:43:15;;;;;;;12.77;8.23;;;30.40;95.80;;;;;;5017656;28;20050;-79
2022/07/23 05:45:43;;;;;;;15.80;7.07;;;30.30;95.80;;;;;;5018037;28;20423;-78
2022/07/23 05:48:10;;;;;;;13.05;6.47;;;30.30;94.60;;;;;;5021121;28;20056;-77
2022/07/23 05:50:48;;;;;;;14.85;7.00;;;30.00;94.60;;;;;;5033468;28;20136;-77
2022/07/23 05:53:29;;;;;;;11.68;5.95;;;29.90;94.30;;;;;;5046779;28;20038;-78
2022/07/23 05:55:59;;;;;;;12.57;6.68;;;29.80;94.70;;;;;;5045381;28;20099;-78
2022/07/23 05:58:27;;;;;;;13.20;6.50;;;29.40;95.60;;;;;;5042296;28;20408;-78
2022/07/23 06:00:54;;;;;;;18.67;10.50;;;29.30;97.70;;;;;;5041990;28;20047;-77
2022/07/23 06:03:21;;;;;;;18.65;7.85;;;28.90;96.80;;;;;;5042220;28;20037;-77
2022/07/23 06:05:49;;;;;;;21.60;11.52;;;28.90;95.80;;;;;;5042068;28;20049;-77
2022/07/23 06:08:17;;;;;;;16.00;10.70;;;28.80;95.80;;;;;;5043675;28;20140;-77
2022/07/23 06:10:46;;;;;;;12.43;7.70;;;28.70;96.00;;;;;;5042029;28;20049;-77
2022/07/23 06:13:14;;;;;;;15.15;7.60;;;28.80;95.30;;;;;;5042667;28;20045;-77
2022/07/23 06:15:42;;;;;;;14.90;8.85;;;29.00;95.10;;;;;;5041175;28;20041;-76
2022/07/23 06:18:09;;;;;;;17.73;10.18;;;29.20;95.00;;;;;;5040080;28;20484;-79
2022/07/23 06:20:37;;;;;;;19.80;9.02;;;29.40;95.00;;;;;;5040022;28;20174;-77
2022/07/23 06:23:04;;;;;;;30.70;11.77;;;29.50;94.60;;;;;;5041347;28;20091;-77
2022/07/23 06:25:32;;;;;;;27.60;9.38;;;29.70;93.90;;;;;;5040215;28;20123;-78
2022/07/23 06:28:00;;;;;;;17.65;7.15;;;29.90;93.40;;;;;;5041276;28;20041;-78
2022/07/23 06:30:28;;;;;;;13.98;7.30;;;30.10;92.70;;;;;;5042853;28;20420;-78
2022/07/23 06:32:55;;;;;;;24.48;9.70;;;30.10;91.30;;;;;;5042330;28;20390;-77
2022/07/23 06:35:22;;;;;;;11.90;8.57;;;30.10;91.10;;;;;;5042453;28;20037;-76
2022/07/23 06:37:50;;;;;;;19.17;8.75;;;30.20;91.10;;;;;;5045468;28;20084;-76
2022/07/23 06:40:17;;;;;;;16.75;9.32;;;30.30;90.60;;;;;;5048140;28;20076;-78
2022/07/23 06:42:45;;;;;;;16.50;8.27;;;30.20;90.60;;;;;;5040174;28;20055;-78
2022/07/23 06:45:19;;;;;;;24.50;10.80;;;30.00;90.20;;;;;;5039657;28;20139;-77
2022/07/23 06:47:48;;;;;;;14.00;8.07;;;29.90;90.00;;;;;;5039214;28;20140;-79
2022/07/23 06:50:15;;;;;;;14.95;6.72;;;29.80;89.50;;;;;;5039262;28;20060;-76
2022/07/23 06:52:43;;;;;;;14.20;6.50;;;29.90;87.60;;;;;;5023470;28;20137;-76
2022/07/23 06:55:11;;;;;;;12.93;7.05;;;29.70;85.60;;;;;;5041030;28;20048;-75
2022/07/23 06:57:39;;;;;;;13.48;7.03;;;29.50;87.00;;;;;;5040492;28;20132;-76
2022/07/23 07:00:08;;;;;;;13.68;6.22;;;29.50;86.80;;;;;;5020420;28;20077;-77
2022/07/23 07:02:37;;;;;;;13.35;7.85;;;29.50;86.70;;;;;;5019663;28;20042;-76
2022/07/23 07:05:06;;;;;;;19.00;10.35;;;29.70;86.90;;;;;;5021351;28;20077;-78
2022/07/23 07:07:33;;;;;;;13.38;6.20;;;30.20;86.00;;;;;;5038379;28;20448;-76
2022/07/23 07:10:01;;;;;;;22.13;7.30;;;30.50;84.00;;;;;;5037624;28;20091;-77
2022/07/23 07:12:28;;;;;;;17.95;8.60;;;31.00;83.00;;;;;;5038495;28;20041;-77
2022/07/23 07:14:56;;;;;;;16.45;7.63;;;31.30;81.10;;;;;;5052712;28;20042;-76
2022/07/23 07:17:23;;;;;;;20.25;10.07;;;31.60;80.00;;;;;;5060392;28;20025;-78
2022/07/23 07:19:52;;;;;;;15.75;10.07;;;32.10;78.30;;;;;;5060143;28;20049;-78
2022/07/23 07:22:19;;;;;;;25.92;10.95;;;32.30;76.70;;;;;;5044747;28;20052;-79
2022/07/23 07:24:47;;;;;;;18.92;11.07;;;32.50;75.30;;;;;;5039279;28;20045;-79
2022/07/23 07:27:14;;;;;;;19.45;10.13;;;32.40;72.90;;;;;;5039078;28;20037;-78
2022/07/23 07:29:41;;;;;;;18.42;9.18;;;32.40;73.00;;;;;;5038078;28;20455;-78
2022/07/23 07:32:09;;;;;;;16.42;7.88;;;32.40;72.30;;;;;;5038746;28;20041;-78
2022/07/23 07:34:36;;;;;;;17.00;8.63;;;32.10;72.10;;;;;;5037579;28;20045;-78
2022/07/23 07:37:05;;;;;;;11.70;7.50;;;32.10;72.60;;;;;;5037838;28;20065;-80
2022/07/23 07:39:32;;;;;;;18.38;7.72;;;32.30;71.90;;;;;;5037620;28;20053;-79
2022/07/23 07:41:59;;;;;;;16.98;8.55;;;32.50;70.10;;;;;;5037778;28;20087;-78
2022/07/23 07:44:27;;;;;;;15.63;7.28;;;32.60;69.00;;;;;;5037250;28;20042;-78
2022/07/23 07:46:54;;;;;;;14.45;7.75;;;32.30;68.40;;;;;;5037495;28;20065;-77
2022/07/23 07:49:22;;;;;;;13.93;7.70;;;32.20;69.20;;;;;;5037630;28;20124;-77
2022/07/23 07:51:49;;;;;;;19.23;8.23;;;32.40;68.20;;;;;;5036858;28;20046;-77
2022/07/23 07:54:18;;;;;;;14.85;7.05;;;32.20;67.80;;;;;;5037719;28;20116;-77
2022/07/23 07:56:45;;;;;;;14.95;8.07;;;32.30;66.90;;;;;;5037820;28;20358;-78
2022/07/23 07:59:14;;;;;;;14.35;9.18;;;32.40;65.40;;;;;;5037086;28;20041;-78
2022/07/23 08:01:41;;;;;;;17.23;7.65;;;32.50;65.40;;;;;;5037620;28;20068;-79
2022/07/23 08:04:09;;;;;;;10.98;7.32;;;32.80;65.20;;;;;;5036246;28;20492;-77
2022/07/23 08:06:36;;;;;;;17.42;8.52;;;33.20;62.70;;;;;;5040255;28;20073;-77
2022/07/23 08:09:04;;;;;;;14.40;7.28;;;33.30;60.90;;;;;;5026036;28;20053;-77
2022/07/23 08:11:32;;;;;;;18.15;8.73;;;33.40;59.80;;;;;;5043204;28;20038;-77
2022/07/23 08:14:00;;;;;;;19.63;9.43;;;33.40;60.30;;;;;;5038651;28;20083;-76
2022/07/23 08:16:27;;;;;;;13.10;6.75;;;33.50;60.00;;;;;;5036891;28;20045;-78
2022/07/23 08:18:55;;;;;;;11.57;7.32;;;33.50;60.30;;;;;;5037442;28;20045;-78
2022/07/23 08:21:22;;;;;;;14.93;7.53;;;33.50;60.50;;;;;;5037159;28;20041;-77
2022/07/23 08:23:49;;;;;;;15.95;7.65;;;33.30;60.70;;;;;;5036816;28;20044;-78
2022/07/23 08:26:17;;;;;;;17.27;8.32;;;33.70;59.90;;;;;;5036948;28;20052;-77
2022/07/23 08:28:45;;;;;;;12.13;7.95;;;34.00;59.90;;;;;;5036385;28;20124;-77
2022/07/23 08:31:15;;;;;;;14.52;8.07;;;34.30;59.50;;;;;;5043936;28;20456;-76
2022/07/23 08:33:42;;;;;;;26.63;7.78;;;34.50;59.30;;;;;;5041313;28;20547;-77
2022/07/23 08:36:10;;;;;;;15.95;7.82;;;34.60;59.10;;;;;;5036855;28;20052;-77
2022/07/23 08:38:37;;;;;;;13.40;7.82;;;34.70;59.00;;;;;;5036239;28;20052;-78
2022/07/23 08:41:05;;;;;;;16.15;7.75;;;34.80;59.40;;;;;;5036447;28;20516;-78
2022/07/23 08:43:35;;;;;;;15.27;7.20;;;34.90;59.70;;;;;;5036877;28;20045;-77
2022/07/23 08:46:04;;;;;;;16.75;9.60;;;34.90;59.60;;;;;;5037303;28;20121;-78
2022/07/23 08:48:33;;;;;;;18.83;9.85;;;35.00;59.20;;;;;;5035693;28;20049;-76
2022/07/23 08:51:01;;;;;;;17.02;9.40;;;35.20;58.80;;;;;;5019870;28;20061;-76
2022/07/23 08:53:30;;;;;;;28.88;12.85;;;35.20;58.90;;;;;;5035987;28;20041;-78
2022/07/23 08:56:01;;;;;;;15.73;7.93;;;35.30;59.50;;;;;;5035832;28;20196;-78
2022/07/23 08:58:28;;;;;;;22.15;10.27;;;35.30;57.70;;;;;;5036151;28;20091;-78
2022/07/23 09:00:57;;;;;;;24.75;11.40;;;35.10;57.20;;;;;;5036168;28;20088;-77
2022/07/23 09:03:27;;;;;;;14.25;9.40;;;35.20;57.60;;;;;;5035692;28;20041;-77
2022/07/23 09:05:56;;;;;;;14.48;7.78;;;35.40;57.10;;;;;;5035719;28;20041;-77
2022/07/23 09:08:24;;;;;;;14.70;7.70;;;35.40;56.10;;;;;;5037163;28;20489;-76
2022/07/23 09:10:54;;;;;;;14.20;7.85;;;35.40;55.40;;;;;;5036060;28;20049;-77
2022/07/23 09:13:27;;;;;;;21.63;8.48;;;35.40;54.50;;;;;;5035425;28;20088;-78
2022/07/23 09:15:57;;;;;;;18.20;8.15;;;35.40;53.90;;;;;;5036778;28;20038;-78
2022/07/23 09:18:34;;;;;;;9.55;5.95;;;35.40;53.00;;;;;;5035218;28;20054;-78
2022/07/23 09:21:20;;;;;;;11.73;7.05;;;35.30;51.00;;;;;;5035818;28;20496;-77
2022/07/23 09:23:50;;;;;;;17.27;7.50;;;35.30;50.50;;;;;;5034539;28;20045;-77
2022/07/23 09:26:30;;;;;;;23.83;9.07;;;35.50;49.50;;;;;;5037730;28;20059;-77
2022/07/23 09:29:07;;;;;;;16.60;8.20;;;35.70;49.30;;;;;;5033779;28;20068;-77
2022/07/23 09:31:51;;;;;;;12.90;8.13;;;35.90;49.50;;;;;;5034538;28;20121;-78
2022/07/23 09:34:21;;;;;;;11.57;6.97;;;36.00;49.40;;;;;;5033942;28;20076;-76
2022/07/23 09:36:49;;;;;;;12.40;7.47;;;36.00;48.40;;;;;;5036284;28;20053;-77
2022/07/23 09:39:23;;;;;;;13.75;6.43;;;36.10;48.80;;;;;;5036354;28;20061;-78
2022/07/23 09:41:50;;;;;;;9.02;6.30;;;36.30;48.90;;;;;;5036583;28;20465;-77
2022/07/23 09:44:19;;;;;;;10.07;5.93;;;36.20;49.60;;;;;;5035986;28;20499;-78
2022/07/23 09:46:48;;;;;;;9.10;6.05;;;36.10;50.30;;;;;;5034371;28;20519;-77
2022/07/23 09:49:18;;;;;;;10.75;6.93;;;36.10;50.30;;;;;;5035784;28;20137;-79
2022/07/23 09:51:53;;;;;;;11.32;5.93;;;36.30;49.30;;;;;;5035039;28;20053;-77
2022/07/23 09:54:30;;;;;;;11.38;6.55;;;36.30;49.80;;;;;;5034672;28;20070;-76
2022/07/23 09:56:59;;;;;;;8.55;5.80;;;36.40;50.00;;;;;;5016950;28;20090;-76
2022/07/23 09:59:29;;;;;;;8.50;5.63;;;36.30;49.70;;;;;;5034334;28;20046;-76
2022/07/23 10:01:59;;;;;;;9.57;6.10;;;36.20;49.60;;;;;;5035322;28;20061;-76
2022/07/23 10:04:28;;;;;;;9.07;6.28;;;36.10;49.90;;;;;;5042484;28;20101;-77
2022/07/23 10:07:21;;;;;;;10.05;5.75;;;36.20;49.90;;;;;;5033942;28;20057;-76
2022/07/23 10:10:08;;;;;;;9.77;7.03;;;36.10;50.80;;;;;;5044802;28;20056;-77
2022/07/23 10:15:45;;;;;;;15.32;6.45;;;36.50;50.40;;;;;;5033914;28;20045;-75
2022/07/23 10:18:14;;;;;;;19.42;6.60;;;36.70;49.90;;;;;;5033565;28;20041;-76
2022/07/23 10:20:42;;;;;;;12.40;6.18;;;36.70;50.10;;;;;;5033917;28;20107;-77
2022/07/23 10:23:19;;;;;;;9.85;6.53;;;36.60;49.70;;;;;;5039674;28;20056;-75
2022/07/23 10:25:56;;;;;;;9.90;6.20;;;36.70;47.50;;;;;;5017346;28;20145;-76
2022/07/23 10:28:40;;;;;;;10.25;6.13;;;36.80;45.60;;;;;;5033685;28;20049;-77
2022/07/23 10:31:17;;;;;;;12.32;7.15;;;36.90;45.30;;;;;;5033840;28;20068;-77
2022/07/23 10:33:54;;;;;;;13.27;7.47;;;36.80;45.80;;;;;;5034148;28;20067;-77
2022/07/23 10:36:28;;;;;;;10.82;7.18;;;36.80;45.70;;;;;;5037376;28;20037;-75
2022/07/23 10:39:06;;;;;;;8.93;7.80;;;36.90;46.40;;;;;;5036965;28;20041;-76
2022/07/23 10:41:35;;;;;;;12.13;7.05;;;37.10;46.70;;;;;;5037637;28;20107;-76
2022/07/23 10:44:10;;;;;;;9.80;6.82;;;37.20;46.00;;;;;;5036805;28;20447;-76
2022/07/23 10:47:00;;;;;;;16.58;11.52;;;37.30;45.70;;;;;;5037194;28;20049;-76
2022/07/23 10:49:29;;;;;;;15.30;7.32;;;37.20;45.70;;;;;;5036970;28;20045;-76
2022/07/23 10:52:21;;;;;;;11.57;7.50;;;37.30;45.60;;;;;;5036738;28;20057;-77
2022/07/23 10:54:51;;;;;;;12.65;7.50;;;37.40;44.90;;;;;;5036671;28;20040;-76
2022/07/23 10:57:19;;;;;;;12.48;7.70;;;37.50;44.00;;;;;;5037046;28;20042;-76
2022/07/23 11:00:22;;;;;;;13.60;7.70;;;37.50;43.50;;;;;;5037023;28;20416;-77
2022/07/23 11:02:51;;;;;;;13.20;7.95;;;37.50;43.20;;;;;;5019001;28;20096;-76
2022/07/23 11:05:20;;;;;;;11.43;7.18;;;37.50;42.70;;;;;;5036058;28;20152;-78
2022/07/23 11:08:24;;;;;;;16.17;8.32;;;37.20;42.60;;;;;;5047049;28;20061;-76
2022/07/23 11:11:09;;;;;;;16.77;11.02;;;37.30;43.10;;;;;;5051093;28;20584;-77
2022/07/23 11:13:54;;;;;;;19.42;9.00;;;37.40;42.50;;;;;;5051543;28;20109;-77
2022/07/23 11:16:26;;;;;;;10.13;7.78;;;37.50;42.00;;;;;;5027222;28;20057;-76
2022/07/23 11:19:04;;;;;;;12.00;8.65;;;37.40;41.50;;;;;;5037245;28;20125;-76
2022/07/23 11:21:48;;;;;;;14.43;10.13;;;37.40;42.30;;;;;;5037156;28;20041;-77
2022/07/23 11:24:18;;;;;;;13.43;9.23;;;37.50;41.00;;;;;;5036335;28;20037;-76
2022/07/23 11:26:50;;;;;;;15.95;7.90;;;37.60;40.10;;;;;;5036658;28;20087;-76
2022/07/23 11:29:39;;;;;;;11.48;7.78;;;37.60;41.00;;;;;;5036617;28;20042;-76
2022/07/23 11:32:08;;;;;;;12.93;7.85;;;37.50;39.60;;;;;;5036666;28;20045;-75
2022/07/23 11:34:40;;;;;;;10.25;7.90;;;37.40;39.60;;;;;;5036268;28;20084;-76
2022/07/23 11:37:10;;;;;;;10.82;8.32;;;37.50;39.80;;;;;;5018367;28;20050;-76
2022/07/23 11:39:38;;;;;;;11.45;8.68;;;37.50;40.20;;;;;;5036562;28;20487;-77
2022/07/23 11:42:08;;;;;;;15.85;9.68;;;37.60;40.30;;;;;;5037003;28;20041;-76
2022/07/23 11:44:37;;;;;;;16.38;9.70;;;37.70;40.20;;;;;;5037484;28;20074;-76
2022/07/23 11:47:07;;;;;;;10.15;8.05;;;37.80;39.80;;;;;;5036644;28;20111;-77
2022/07/23 11:49:35;;;;;;;10.35;8.43;;;37.70;39.30;;;;;;5037351;28;20045;-76
2022/07/23 11:52:06;;;;;;;10.63;7.70;;;37.70;39.20;;;;;;5038009;28;20160;-76
2022/07/23 11:54:33;;;;;;;9.68;7.05;;;37.60;38.80;;;;;;5035581;28;20042;-77
2022/07/23 11:57:02;;;;;;;8.23;7.32;;;37.70;39.30;;;;;;5035758;28;20037;-75
2022/07/23 11:59:33;;;;;;;12.40;7.40;;;37.70;38.40;;;;;;5035776;28;20417;-76
2022/07/23 12:02:02;;;;;;;14.20;10.57;;;37.70;38.20;;;;;;5035204;28;20492;-75
2022/07/23 12:04:39;;;;;;;14.70;11.63;;;37.80;38.20;;;;;;5035385;28;20117;-76
2022/07/23 12:07:23;;;;;;;13.02;9.88;;;37.70;37.90;;;;;;5035344;28;20068;-75
2022/07/23 12:09:50;;;;;;;9.88;6.82;;;37.50;37.50;;;;;;5035559;28;20095;-76
2022/07/23 12:12:17;;;;;;;8.90;7.50;;;37.50;38.10;;;;;;5037754;28;20046;-76
2022/07/23 12:14:54;;;;;;;12.73;7.30;;;37.50;36.60;;;;;;5046903;28;20448;-75
2022/07/23 12:17:29;;;;;;;17.20;7.03;;;37.60;37.00;;;;;;5036907;28;20049;-75
2022/07/23 12:19:58;;;;;;;9.55;7.93;;;37.60;35.20;;;;;;5035874;28;20080;-75
2022/07/23 12:22:26;;;;;;;10.82;7.20;;;37.70;34.40;;;;;;5017641;28;20057;-77
2022/07/23 12:24:58;;;;;;;10.07;7.20;;;37.70;33.30;;;;;;5034839;28;20378;-77
2022/07/23 12:27:26;;;;;;;10.80;7.47;;;37.50;33.80;;;;;;5034814;28;20151;-75
2022/07/23 12:29:55;;;;;;;9.82;7.85;;;37.40;33.40;;;;;;5035211;28;20493;-75
2022/07/23 12:32:24;;;;;;;10.70;7.82;;;37.40;34.40;;;;;;5017489;28;20072;-76
2022/07/23 12:35:05;;;;;;;11.45;7.47;;;37.60;34.30;;;;;;5034878;28;20534;-77
2022/07/23 12:37:34;;;;;;;8.50;6.85;;;37.60;33.80;;;;;;5034631;28;20045;-77
2022/07/23 12:40:36;;;;;;;12.27;7.45;;;37.50;33.80;;;;;;5034890;28;20405;-78
2022/07/23 12:43:06;;;;;;;10.90;7.70;;;37.50;33.70;;;;;;5029568;28;20050;-76
2022/07/23 12:45:47;;;;;;;12.52;7.60;;;37.60;33.90;;;;;;5037155;28;20045;-76
2022/07/23 12:48:24;;;;;;;10.40;7.13;;;37.70;34.10;;;;;;5037598;28;20038;-76
2022/07/23 12:50:57;;;;;;;11.35;7.57;;;37.70;34.50;;;;;;5035320;28;20045;-77
2022/07/23 12:53:27;;;;;;;13.40;7.45;;;37.80;33.90;;;;;;5034394;28;20091;-78
2022/07/23 12:56:01;;;;;;;15.38;8.40;;;37.70;34.40;;;;;;5040864;28;20041;-76